Time;durP1;ratioP1;P1;durP2;ratioP2;P2;SDS_P1;SDS_P2;PMS_P1;PMS_P2;Temp;Humidity;BMP_temperature;BMP_pressure;BME280_temperature;BME280_humidity;BME280_pressure;Samples;Min_cycle;Max_cycle;Signal;HPM_P1;HPM_P2
2022/07/09 00:00:43;;;;;;;4.10;1.20;;;;;;;15.81;83.76;102332.06;5054262;28;20060;-83
2022/07/09 00:03:10;;;;;;;4.18;1.10;;;;;;;15.78;83.85;102331.47;5072078;28;20128;-84
2022/07/09 00:05:36;;;;;;;2.53;1.10;;;;;;;15.78;83.71;102337.66;5070900;28;20032;-84
2022/07/09 00:08:02;;;;;;;2.90;1.20;;;;;;;15.84;83.43;102341.59;5055061;28;20031;-83
2022/07/09 00:10:28;;;;;;;1.88;0.95;;;;;;;15.85;83.26;102333.47;5070794;28;20040;-83
2022/07/09 00:12:53;;;;;;;2.95;1.20;;;;;;;15.85;83.34;102340.63;5051044;28;20033;-84
2022/07/09 00:15:19;;;;;;;2.42;1.23;;;;;;;15.83;83.28;102342.59;5051947;28;20032;-84
2022/07/09 00:17:45;;;;;;;1.67;1.00;;;;;;;15.81;83.30;102342.72;5062110;28;20028;-84
2022/07/09 00:20:11;;;;;;;1.13;0.80;;;;;;;15.85;83.32;102345.94;5071016;28;20037;-84
2022/07/09 00:22:37;;;;;;;1.58;0.85;;;;;;;15.91;83.43;102357.94;5054040;28;20127;-84
2022/07/09 00:25:03;;;;;;;1.67;0.70;;;;;;;15.96;82.82;102347.69;5053060;28;20501;-83
2022/07/09 00:27:29;;;;;;;1.80;1.20;;;;;;;16.07;82.63;102360.16;5053162;28;20400;-84
2022/07/09 00:29:55;;;;;;;1.20;0.90;;;;;;;16.13;81.98;102351.59;5052611;28;20051;-84
2022/07/09 00:32:21;;;;;;;4.53;0.90;;;;;;;16.17;81.43;102353.03;5053312;28;20036;-84
2022/07/09 00:34:47;;;;;;;2.05;1.05;;;;;;;16.16;80.71;102348.66;5055594;28;20050;-83
2022/07/09 00:37:13;;;;;;;3.25;0.90;;;;;;;16.13;80.61;102351.59;5052229;28;20454;-83
2022/07/09 00:39:39;;;;;;;1.08;0.90;;;;;;;16.05;80.68;102348.75;5069536;28;20481;-82
2022/07/09 00:42:08;;;;;;;1.02;0.85;;;;;;;15.95;80.56;102354.88;5069706;28;20035;-84
2022/07/09 00:44:35;;;;;;;1.80;0.90;;;;;;;15.89;80.56;102344.72;5036620;28;20119;-84
2022/07/09 00:47:02;;;;;;;0.85;0.80;;;;;;;15.82;80.57;102338.22;5053276;28;20036;-83
2022/07/09 00:49:30;;;;;;;1.60;1.00;;;;;;;15.75;80.59;102332.59;5068769;28;20109;-84
2022/07/09 00:51:56;;;;;;;1.88;1.00;;;;;;;15.70;80.51;102326.81;5037095;28;20392;-84
2022/07/09 00:54:23;;;;;;;1.08;0.95;;;;;;;15.67;80.82;102327.91;5039116;28;20410;-84
2022/07/09 00:56:54;;;;;;;0.90;0.90;;;;;;;15.67;80.69;102324.41;5057124;28;20063;-84
2022/07/09 00:59:21;;;;;;;1.77;1.05;;;;;;;15.66;80.71;102333.34;5055700;28;20045;-84
2022/07/09 01:01:49;;;;;;;1.60;1.33;;;;;;;15.64;80.54;102322.81;5054184;28;20032;-84
2022/07/09 01:04:15;;;;;;;1.13;1.00;;;;;;;15.61;80.45;102323.09;5071649;28;20036;-84
2022/07/09 01:06:41;;;;;;;2.15;1.38;;;;;;;15.61;80.41;102317.75;5074097;28;20024;-84
2022/07/09 01:09:07;;;;;;;1.58;1.33;;;;;;;15.59;80.16;102325.88;5039742;28;20489;-79
2022/07/09 01:11:33;;;;;;;4.43;1.20;;;;;;;15.55;80.07;102320.97;5056757;28;20069;-79
2022/07/09 01:13:59;;;;;;;1.77;1.10;;;;;;;15.51;79.92;102315.06;5056378;28;20060;-83
2022/07/09 01:16:33;;;;;;;2.72;1.40;;;;;;;15.48;79.64;102318.81;5074240;28;20059;-83
2022/07/09 01:18:59;;;;;;;1.67;1.10;;;;;;;15.44;79.37;102313.88;4981599;28;20039;-84
2022/07/09 01:21:25;;;;;;;2.05;1.15;;;;;;;15.39;79.32;102316.94;5039343;28;20393;-84
2022/07/09 01:23:50;;;;;;;1.55;1.15;;;;;;;15.34;79.21;102311.16;5064000;28;20694;-79
2022/07/09 01:26:19;;;;;;;2.97;1.40;;;;;;;15.33;79.26;102310.31;5051857;28;20386;-79
2022/07/09 01:28:48;;;;;;;3.47;1.40;;;;;;;15.32;79.05;102316.59;5056205;28;20103;-83
2022/07/09 01:31:14;;;;;;;1.58;1.38;;;;;;;15.31;79.23;102311.41;5073668;28;20047;-84
2022/07/09 01:33:40;;;;;;;7.80;1.40;;;;;;;15.31;79.22;102312.25;5072767;28;20082;-84
2022/07/09 01:36:07;;;;;;;2.33;1.20;;;;;;;15.34;79.15;102305.81;5055512;28;20051;-83
2022/07/09 01:38:33;;;;;;;1.90;1.25;;;;;;;15.37;78.96;102308.22;5056184;28;20159;-83
2022/07/09 01:40:59;;;;;;;0.90;0.90;;;;;;;15.36;78.83;102311.88;5038508;28;20024;-84
2022/07/09 01:43:25;;;;;;;1.20;1.20;;;;;;;15.37;79.05;102316.22;5053571;28;20479;-84
2022/07/09 01:45:51;;;;;;;1.42;1.17;;;;;;;15.39;79.01;102308.94;5060712;28;20427;-84
2022/07/09 01:48:17;;;;;;;3.05;1.67;;;;;;;15.44;78.71;102312.06;5052557;28;20480;-84
2022/07/09 01:50:44;;;;;;;2.17;1.17;;;;;;;15.46;78.77;102307.47;5068711;28;20077;-84
2022/07/09 01:53:09;;;;;;;2.47;1.30;;;;;;;15.45;78.78;102311.09;5039025;28;20044;-84
2022/07/09 01:55:35;;;;;;;1.15;0.90;;;;;;;15.44;78.77;102313.88;5072088;28;20029;-84
2022/07/09 01:58:01;;;;;;;4.78;2.03;;;;;;;15.44;78.70;102311.22;5068824;28;20032;-79
2022/07/09 02:00:30;;;;;;;2.75;1.10;;;;;;;15.42;78.87;102310.50;5067444;28;20409;-79
2022/07/09 02:02:56;;;;;;;1.05;0.95;;;;;;;15.41;78.94;102309.66;5028054;28;20043;-84
2022/07/09 02:05:22;;;;;;;1.38;1.00;;;;;;;15.38;78.83;102317.91;5053091;28;20473;-84
2022/07/09 02:07:49;;;;;;;1.88;1.27;;;;;;;15.35;78.88;102313.69;5055558;28;20035;-84
2022/07/09 02:10:15;;;;;;;1.40;1.20;;;;;;;15.30;78.87;102317.72;5072926;28;20044;-84
2022/07/09 02:12:41;;;;;;;1.30;1.08;;;;;;;15.21;79.16;102306.03;5072385;28;20504;-84
2022/07/09 02:15:08;;;;;;;1.42;1.00;;;;;;;15.17;79.37;102309.91;5055077;28;20046;-84
2022/07/09 02:17:34;;;;;;;1.88;1.70;;;;;;;15.13;79.51;102312.81;5055111;28;20032;-83
2022/07/09 02:20:00;;;;;;;2.33;1.50;;;;;;;15.09;79.64;102307.88;5056740;28;20028;-82
2022/07/09 02:22:27;;;;;;;2.53;1.80;;;;;;;15.01;79.96;102308.53;5038735;28;20028;-83
2022/07/09 02:24:53;;;;;;;10.15;2.60;;;;;;;14.91;80.55;102308.44;5040023;28;20062;-83
2022/07/09 02:27:19;;;;;;;19.63;2.60;;;;;;;14.84;80.95;102305.44;5052289;28;20086;-83
2022/07/09 02:29:45;;;;;;;5.13;2.30;;;;;;;14.75;81.50;102304.34;5066838;28;20028;-83
2022/07/09 02:32:11;;;;;;;20.98;2.88;;;;;;;14.71;81.99;102304.75;5054104;28;20043;-83
2022/07/09 02:34:37;;;;;;;24.83;2.58;;;;;;;14.66;82.64;102302.44;5038327;28;20036;-83
2022/07/09 02:37:07;;;;;;;9.50;2.10;;;;;;;14.66;83.11;102304.25;5046156;28;20056;-79
2022/07/09 02:39:33;;;;;;;6.07;2.30;;;;;;;14.66;83.43;102297.13;5053838;28;20032;-78
2022/07/09 02:41:59;;;;;;;4.28;2.10;;;;;;;14.68;83.50;102295.19;5052993;28;20039;-83
2022/07/09 02:44:25;;;;;;;12.82;2.10;;;;;;;14.69;83.66;102296.03;5046713;28;20033;-83
2022/07/09 02:46:51;;;;;;;9.02;2.25;;;;;;;14.67;83.66;102292.66;5038108;28;20033;-83
2022/07/09 02:49:17;;;;;;;7.88;1.85;;;;;;;14.63;84.06;102292.91;5071683;28;20048;-84
2022/07/09 02:51:43;;;;;;;3.05;1.95;;;;;;;14.60;84.35;102293.16;5053443;28;20048;-83
2022/07/09 02:54:09;;;;;;;10.35;1.98;;;;;;;14.58;84.69;102292.44;5064417;28;20029;-84
2022/07/09 02:56:34;;;;;;;13.10;1.80;;;;;;;14.57;84.96;102289.91;5046692;28;20481;-84
2022/07/09 02:59:00;;;;;;;48.05;2.70;;;;;;;14.55;85.13;102289.19;5068493;28;20033;-84
2022/07/09 03:01:26;;;;;;;9.57;1.95;;;;;;;14.52;85.41;102290.28;5054689;28;20104;-84
2022/07/09 03:03:52;;;;;;;2.00;1.80;;;;;;;14.48;85.51;102283.50;5033424;28;20045;-84
2022/07/09 03:06:18;;;;;;;4.82;1.60;;;;;;;14.45;85.84;102281.94;5053774;28;20028;-83
2022/07/09 03:08:44;;;;;;;19.23;1.90;;;;;;;14.39;86.09;102270.00;5067424;28;20108;-84
2022/07/09 03:11:09;;;;;;;13.07;1.60;;;;;;;14.37;86.45;102274.59;5069403;28;20104;-84
2022/07/09 03:13:36;;;;;;;2.38;1.50;;;;;;;14.34;86.65;102272.19;5063703;28;20084;-79
2022/07/09 03:16:03;;;;;;;12.20;1.42;;;;;;;14.33;86.90;102267.84;5051898;28;20090;-78
2022/07/09 03:18:29;;;;;;;4.18;1.58;;;;;;;14.31;87.02;102268.91;5068700;28;20029;-84
2022/07/09 03:20:55;;;;;;;33.78;1.60;;;;;;;14.31;87.28;102268.91;5048781;28;20480;-83
2022/07/09 03:23:21;;;;;;;5.57;1.25;;;;;;;14.31;87.35;102276.88;5063034;28;20028;-79
2022/07/09 03:25:47;;;;;;;32.30;1.77;;;;;;;14.31;87.42;102271.56;5063581;28;20033;-78
2022/07/09 03:28:13;;;;;;;27.05;2.03;;;;;;;14.32;87.46;102278.56;5036000;28;20546;-83
2022/07/09 03:30:39;;;;;;;12.35;1.90;;;;;;;14.30;87.55;102264.56;5051058;28;20492;-84
2022/07/09 03:33:05;;;;;;;1.90;1.40;;;;;;;14.25;87.73;102278.25;5062514;28;20037;-83
2022/07/09 03:35:30;;;;;;;4.97;1.52;;;;;;;14.23;88.10;102272.19;5053423;28;20044;-83
2022/07/09 03:37:56;;;;;;;40.25;2.08;;;;;;;14.23;88.08;102272.19;5043053;28;20124;-84
2022/07/09 03:40:23;;;;;;;68.70;2.53;;;;;;;14.21;88.22;102277.63;5067421;28;20068;-83
2022/07/09 03:42:48;;;;;;;30.08;1.80;;;;;;;14.16;88.54;102266.50;5053578;28;20397;-83
2022/07/09 03:45:14;;;;;;;43.92;2.25;;;;;;;14.13;88.84;102275.59;5049589;28;20048;-84
2022/07/09 03:47:40;;;;;;;19.33;1.52;;;;;;;14.17;88.90;102270.03;5067156;28;20033;-79
2022/07/09 03:50:06;;;;;;;38.10;2.08;;;;;;;14.19;89.01;102262.78;5052791;28;20050;-79
2022/07/09 03:52:33;;;;;;;8.80;1.60;;;;;;;14.20;88.84;102267.97;5060418;28;20044;-79
2022/07/09 03:54:59;;;;;;;10.88;1.42;;;;;;;14.21;88.96;102264.34;5049232;28;20036;-79
2022/07/09 03:57:25;;;;;;;19.65;1.80;;;;;;;14.25;89.04;102268.44;5065160;28;20476;-83
2022/07/09 03:59:50;;;;;;;4.40;1.35;;;;;;;14.26;88.83;102270.13;5052955;28;20033;-83
2022/07/09 04:02:16;;;;;;;31.75;1.75;;;;;;;14.25;88.94;102267.59;5053012;28;20392;-84
2022/07/09 04:04:43;;;;;;;7.18;1.30;;;;;;;14.27;88.93;102270.97;5053091;28;20043;-84
2022/07/09 04:07:09;;;;;;;8.70;1.10;;;;;;;14.29;89.21;102271.69;5052021;28;20110;-84
2022/07/09 04:09:36;;;;;;;4.00;1.15;;;;;;;14.32;88.89;102271.44;5034982;28;20064;-83
2022/07/09 04:12:02;;;;;;;8.88;1.10;;;;;;;14.29;88.78;102274.34;5036714;28;20029;-83
2022/07/09 04:14:27;;;;;;;49.08;1.70;;;;;;;14.30;88.84;102281.34;5048971;28;20043;-83
2022/07/09 04:16:53;;;;;;;1.10;1.00;;;;;;;14.30;89.01;102281.34;5069806;28;20033;-83
2022/07/09 04:19:19;;;;;;;6.30;0.95;;;;;;;14.36;88.94;102266.72;5051189;28;20135;-83
2022/07/09 04:21:45;;;;;;;21.13;1.30;;;;;;;14.37;88.59;102268.41;5049730;28;20128;-83
2022/07/09 04:24:11;;;;;;;1.67;1.08;;;;;;;14.36;88.51;102266.72;5024938;28;20120;-83
2022/07/09 04:26:37;;;;;;;2.25;0.90;;;;;;;14.34;88.70;102261.53;5068139;28;20032;-84
2022/07/09 04:29:03;;;;;;;12.60;1.00;;;;;;;14.33;88.38;102265.19;5062463;28;20036;-83
2022/07/09 04:31:28;;;;;;;19.55;1.50;;;;;;;14.32;88.60;102270.59;5055096;28;20052;-83
2022/07/09 04:33:54;;;;;;;1.90;1.00;;;;;;;14.30;88.73;102264.56;5054377;28;20086;-84
2022/07/09 04:36:20;;;;;;;7.10;0.93;;;;;;;14.35;88.90;102273.03;5053628;28;20047;-83
2022/07/09 04:38:46;;;;;;;1.00;0.90;;;;;;;14.42;88.80;102273.34;5040006;28;20037;-83
2022/07/09 04:41:12;;;;;;;15.07;1.40;;;;;;;14.46;88.66;102262.34;5056704;28;20370;-83
2022/07/09 04:43:37;;;;;;;11.45;1.10;;;;;;;14.47;88.41;102266.72;5064408;28;20059;-83
2022/07/09 04:46:03;;;;;;;5.85;1.17;;;;;;;14.51;88.42;102267.28;5040286;28;20090;-83
2022/07/09 04:48:29;;;;;;;10.35;1.23;;;;;;;14.47;88.26;102266.72;5071792;28;20063;-84
2022/07/09 04:50:55;;;;;;;20.67;1.15;;;;;;;14.48;88.49;102263.06;5056413;28;20028;-83
2022/07/09 04:53:21;;;;;;;16.85;1.10;;;;;;;14.50;88.26;102263.81;5054525;28;20033;-84
2022/07/09 04:55:48;;;;;;;13.30;1.30;;;;;;;14.56;88.43;102262.44;5053168;28;20025;-83
2022/07/09 04:58:13;;;;;;;6.15;1.13;;;;;;;14.55;88.20;102262.56;5053597;28;20032;-83
2022/07/09 05:00:39;;;;;;;24.75;1.20;;;;;;;14.56;88.53;102258.91;5056495;28;20081;-83
2022/07/09 05:03:05;;;;;;;8.73;1.15;;;;;;;14.56;88.51;102259.78;5072765;28;20067;-78
2022/07/09 05:05:31;;;;;;;15.52;1.10;;;;;;;14.58;88.68;102254.34;5054828;28;20036;-78
2022/07/09 05:07:57;;;;;;;7.43;1.00;;;;;;;14.59;88.74;102256.00;5052679;28;20108;-83
2022/07/09 05:10:23;;;;;;;16.40;1.30;;;;;;;14.58;88.57;102263.16;5054173;28;20040;-83
2022/07/09 05:12:50;;;;;;;8.57;1.10;;;;;;;14.57;88.96;102258.78;5066108;28;20025;-83
2022/07/09 05:15:16;;;;;;;30.50;1.45;;;;;;;14.57;88.69;102257.97;5053863;28;20115;-83
2022/07/09 05:17:42;;;;;;;9.13;1.02;;;;;;;14.55;89.07;102265.22;5035037;28;20543;-83
2022/07/09 05:20:10;;;;;;;3.35;0.90;;;;;;;14.56;89.28;102267.75;5056496;28;20040;-83
2022/07/09 05:22:37;;;;;;;0.80;0.80;;;;;;;14.56;89.47;102274.88;5055090;28;20084;-83
2022/07/09 05:25:05;;;;;;;16.98;1.13;;;;;;;14.55;89.49;102263.41;5052845;28;20044;-82
2022/07/09 05:27:31;;;;;;;0.63;0.63;;;;;;;14.55;89.63;102276.72;5056279;28;20070;-83
2022/07/09 05:29:57;;;;;;;3.88;0.80;;;;;;;14.60;89.63;102281.66;5057045;28;20037;-83
2022/07/09 05:32:22;;;;;;;21.33;1.15;;;;;;;14.65;89.41;102279.50;5056805;28;20454;-78
2022/07/09 05:34:48;;;;;;;16.13;1.05;;;;;;;14.67;89.09;102282.84;5038057;28;20071;-78
2022/07/09 05:37:14;;;;;;;1.08;0.80;;;;;;;14.66;89.19;102283.81;5071153;28;20424;-83
2022/07/09 05:39:40;;;;;;;2.80;0.90;;;;;;;14.70;89.31;102279.94;5052917;28;20102;-83
2022/07/09 05:42:06;;;;;;;1.20;0.73;;;;;;;14.74;89.26;102286.72;5055687;28;20107;-83
2022/07/09 05:44:32;;;;;;;26.40;0.98;;;;;;;14.77;88.83;102293.59;5054932;28;20159;-83
2022/07/09 05:46:58;;;;;;;82.43;2.10;;;;;;;14.74;89.02;102285.84;5072490;28;20538;-83
2022/07/09 05:49:24;;;;;;;21.17;1.02;;;;;;;14.73;89.12;102285.00;5056130;28;20068;-83
2022/07/09 05:51:50;;;;;;;8.27;0.80;;;;;;;14.72;89.20;102290.44;5052351;28;20544;-83
2022/07/09 05:54:15;;;;;;;23.67;0.93;;;;;;;14.73;89.38;102285.00;5050239;28;20036;-83
2022/07/09 05:56:41;;;;;;;11.65;0.93;;;;;;;14.74;89.56;102297.34;5038639;28;20033;-83
2022/07/09 05:59:07;;;;;;;0.80;0.55;;;;;;;14.76;89.58;102298.06;5051868;28;20037;-83
2022/07/09 06:01:39;;;;;;;3.95;0.80;;;;;;;14.80;89.65;102298.69;5054061;28;20032;-83
2022/07/09 06:04:09;;;;;;;60.88;1.88;;;;;;;14.74;89.52;102305.34;5051230;28;20032;-83
2022/07/09 06:06:35;;;;;;;14.85;1.13;;;;;;;14.68;89.79;102312.97;5054999;28;20473;-83
2022/07/09 06:09:01;;;;;;;16.50;1.00;;;;;;;14.71;90.16;102308.25;5054880;28;20032;-83
2022/07/09 06:11:27;;;;;;;3.70;0.70;;;;;;;14.79;90.07;102309.44;5071064;28;20412;-84
2022/07/09 06:13:53;;;;;;;2.90;0.93;;;;;;;14.90;90.21;102313.91;5038436;28;20047;-83
2022/07/09 06:16:19;;;;;;;5.18;0.95;;;;;;;14.97;89.84;102310.59;5012775;28;20036;-83
2022/07/09 06:18:45;;;;;;;9.05;0.90;;;;;;;15.03;89.71;102313.72;5054294;28;20082;-83
2022/07/09 06:21:10;;;;;;;14.38;1.02;;;;;;;15.12;89.78;102312.97;5054875;28;20050;-83
2022/07/09 06:23:36;;;;;;;3.33;0.70;;;;;;;15.18;89.52;102314.28;5057409;28;20477;-79
2022/07/09 06:26:02;;;;;;;2.40;0.77;;;;;;;15.19;89.77;102306.16;5051048;28;20028;-79
2022/07/09 06:28:28;;;;;;;1.27;0.80;;;;;;;15.25;89.82;102312.78;5054632;28;20657;-84
2022/07/09 06:30:54;;;;;;;1.67;1.10;;;;;;;15.29;89.90;102311.53;5037589;28;20059;-83
2022/07/09 06:33:20;;;;;;;0.68;0.68;;;;;;;15.33;89.63;102312.97;5053361;28;20037;-83
2022/07/09 06:35:45;;;;;;;0.68;0.65;;;;;;;15.41;89.52;102314.13;5069677;28;20488;-83
2022/07/09 06:38:11;;;;;;;0.60;0.60;;;;;;;15.49;89.36;102314.34;5052454;28;20489;-84
2022/07/09 06:40:37;;;;;;;0.60;0.60;;;;;;;15.57;89.11;102314.53;5070854;28;20036;-83
2022/07/09 06:43:04;;;;;;;0.50;0.47;;;;;;;15.65;88.92;102310.34;5050950;28;20055;-78
2022/07/09 06:45:36;;;;;;;0.90;0.60;;;;;;;15.69;88.67;102317.97;5053536;28;20039;-78
2022/07/09 06:48:02;;;;;;;1.23;0.30;;;;;;;15.75;88.76;102314.75;5070429;28;20028;-83
2022/07/09 06:50:28;;;;;;;0.50;0.50;;;;;;;15.88;88.53;102321.69;5050298;28;20078;-83
2022/07/09 06:52:54;;;;;;;0.88;0.55;;;;;;;15.94;88.39;102323.81;5052843;28;20036;-83
2022/07/09 06:55:19;;;;;;;0.63;0.60;;;;;;;15.97;88.12;102323.59;5045804;28;20033;-83
2022/07/09 06:57:45;;;;;;;0.82;0.50;;;;;;;15.97;88.09;102322.72;5068286;28;20037;-84
2022/07/09 07:00:11;;;;;;;1.70;0.77;;;;;;;15.93;88.10;102319.47;5068176;28;20025;-83
2022/07/09 07:02:37;;;;;;;1.27;0.80;;;;;;;15.92;88.29;102315.13;5053315;28;20139;-83
2022/07/09 07:05:04;;;;;;;1.67;0.50;;;;;;;16.02;88.01;102323.22;5053995;28;20492;-83
2022/07/09 07:07:30;;;;;;;0.95;0.50;;;;;;;16.12;88.40;102318.75;5054008;28;20086;-83
2022/07/09 07:09:56;;;;;;;0.50;0.43;;;;;;;16.22;88.24;102324.13;5049623;28;20062;-83
2022/07/09 07:12:22;;;;;;;1.10;0.85;;;;;;;16.30;87.89;102319.91;5050116;28;20029;-83
2022/07/09 07:14:48;;;;;;;0.68;0.63;;;;;;;16.37;87.63;102319.22;5069658;28;20035;-84
2022/07/09 07:17:14;;;;;;;0.25;0.25;;;;;;;16.53;87.23;102319.69;5066423;28;20119;-84
2022/07/09 07:19:40;;;;;;;0.55;0.55;;;;;;;16.71;87.14;102318.03;5066378;28;20047;-84
2022/07/09 07:22:05;;;;;;;0.45;0.38;;;;;;;16.83;86.80;102321.41;5053791;28;20032;-84
2022/07/09 07:24:31;;;;;;;0.40;0.40;;;;;;;16.88;86.67;102322.81;5049644;28;20508;-84
2022/07/09 07:26:58;;;;;;;1.70;0.60;;;;;;;16.95;86.45;102323.94;5053228;28;20137;-84
2022/07/09 07:29:24;;;;;;;0.60;0.40;;;;;;;17.11;86.34;102315.41;5044887;28;20476;-83
2022/07/09 07:31:50;;;;;;;2.47;0.32;;;;;;;17.40;85.87;102317.19;5069803;28;20030;-84
2022/07/09 07:34:19;;;;;;;0.40;0.32;;;;;;;17.58;84.93;102317.28;5064957;28;20554;-83
2022/07/09 07:36:45;;;;;;;1.13;0.30;;;;;;;17.73;84.62;102324.84;5031418;28;20036;-83
2022/07/09 07:39:11;;;;;;;0.40;0.40;;;;;;;17.63;83.65;102316.84;5066637;28;20407;-83
2022/07/09 07:41:36;;;;;;;0.60;0.50;;;;;;;17.51;83.87;102323.34;5069873;28;20028;-84
2022/07/09 07:44:02;;;;;;;2.28;0.40;;;;;;;17.47;84.30;102317.47;5070639;28;20757;-83
2022/07/09 07:46:29;;;;;;;0.30;0.28;;;;;;;17.58;84.12;102321.81;5050947;28;20109;-84
2022/07/09 07:48:55;;;;;;;0.30;0.30;;;;;;;17.65;83.48;102319.38;5068377;28;20056;-83
2022/07/09 07:51:21;;;;;;;0.35;0.30;;;;;;;17.63;83.28;102316.84;5069338;28;20043;-83
2022/07/09 07:53:46;;;;;;;1.85;0.30;;;;;;;17.63;82.50;102311.50;5070119;28;20043;-83
2022/07/09 07:56:12;;;;;;;0.95;0.22;;;;;;;17.63;82.57;102310.66;5052040;28;20106;-83
2022/07/09 07:58:38;;;;;;;2.38;0.30;;;;;;;17.68;82.09;102314.59;5054149;28;20048;-79
2022/07/09 08:01:04;;;;;;;0.50;0.30;;;;;;;17.79;81.79;102312.72;5070784;28;20029;-79
2022/07/09 08:03:30;;;;;;;0.20;0.20;;;;;;;17.88;81.39;102311.84;5074696;28;20040;-78
2022/07/09 08:05:56;;;;;;;0.20;0.20;;;;;;;17.97;81.15;102312.78;5078347;28;20039;-79
2022/07/09 08:08:22;;;;;;;2.17;0.50;;;;;;;17.98;80.83;102309.13;5058175;28;20021;-83
2022/07/09 08:10:48;;;;;;;0.20;0.20;;;;;;;17.96;80.68;102309.25;5043759;28;20485;-83
2022/07/09 08:13:15;;;;;;;2.50;0.20;;;;;;;17.99;80.49;102313.50;5058208;28;20370;-83
2022/07/09 08:15:41;;;;;;;0.47;0.10;;;;;;;18.09;80.49;102319.63;5057405;28;20094;-83
2022/07/09 08:18:11;;;;;;;0.63;0.32;;;;;;;18.18;80.22;102319.75;5073131;28;20035;-83
2022/07/09 08:20:41;;;;;;;0.50;0.28;;;;;;;18.21;79.70;102319.47;5060722;28;20094;-83
2022/07/09 08:23:08;;;;;;;0.30;0.25;;;;;;;18.20;79.74;102321.28;5046920;28;20628;-83
2022/07/09 08:25:34;;;;;;;0.30;0.30;;;;;;;18.22;79.95;102321.13;5057861;28;20130;-83
2022/07/09 08:28:01;;;;;;;1.40;0.30;;;;;;;18.21;79.78;102320.31;5044301;28;20115;-83
2022/07/09 08:30:27;;;;;;;0.50;0.30;;;;;;;18.21;79.69;102323.00;5065775;28;20025;-83
2022/07/09 08:32:53;;;;;;;0.20;0.20;;;;;;;18.26;79.70;102316.34;5060977;28;20035;-79
2022/07/09 08:35:19;;;;;;;0.45;0.20;;;;;;;18.33;79.64;102317.44;5070957;28;20040;-79
2022/07/09 08:37:45;;;;;;;0.28;0.28;;;;;;;18.39;79.56;102319.50;5054559;28;20063;-84
2022/07/09 08:40:11;;;;;;;1.55;0.10;;;;;;;18.44;79.50;102314.53;5074346;28;20060;-83
2022/07/09 08:42:37;;;;;;;0.28;0.28;;;;;;;18.55;79.40;102315.31;5072563;28;20040;-84
2022/07/09 08:45:10;;;;;;;1.63;0.20;;;;;;;18.69;79.20;102319.31;5072612;28;20043;-83
2022/07/09 08:47:36;;;;;;;3.65;0.30;;;;;;;18.67;79.44;102316.78;5073604;28;20050;-83
2022/07/09 08:50:02;;;;;;;0.20;0.20;;;;;;;18.63;79.97;102323.44;5075540;28;20045;-83
2022/07/09 08:52:28;;;;;;;0.52;0.20;;;;;;;18.70;80.05;102319.16;5059736;28;20060;-84
2022/07/09 08:54:55;;;;;;;0.60;0.20;;;;;;;18.77;80.11;102322.06;5075676;28;20036;-83
2022/07/09 08:57:20;;;;;;;0.28;0.20;;;;;;;18.71;79.75;102318.16;5040607;28;20093;-83
2022/07/09 08:59:46;;;;;;;0.20;0.20;;;;;;;18.63;79.74;102328.81;5059009;28;20032;-83
2022/07/09 09:02:13;;;;;;;1.95;0.30;;;;;;;18.55;79.95;102324.22;5073764;28;20037;-83
2022/07/09 09:04:40;;;;;;;0.20;0.20;;;;;;;18.57;79.57;102321.38;5071315;28;20029;-83
2022/07/09 09:07:17;;;;;;;0.40;0.20;;;;;;;18.59;79.22;102324.72;5056840;28;20044;-83
2022/07/09 09:09:44;;;;;;;1.00;0.30;;;;;;;18.61;79.44;102322.75;5059154;28;20032;-83
2022/07/09 09:12:10;;;;;;;0.47;0.20;;;;;;;18.70;79.27;102315.63;5074425;28;20469;-83
2022/07/09 09:14:36;;;;;;;0.30;0.20;;;;;;;18.80;78.81;102311.06;5057679;28;20044;-84
2022/07/09 09:17:05;;;;;;;1.38;0.30;;;;;;;18.93;78.29;102312.50;5055699;28;20056;-83
2022/07/09 09:19:31;;;;;;;0.20;0.20;;;;;;;19.07;77.88;102316.47;5072320;28;20032;-83
2022/07/09 09:21:57;;;;;;;0.22;0.10;;;;;;;19.15;77.60;102313.88;5073081;28;20088;-83
2022/07/09 09:24:25;;;;;;;0.47;0.30;;;;;;;19.21;77.55;102313.25;5039587;28;20036;-83
2022/07/09 09:26:51;;;;;;;0.17;0.13;;;;;;;19.24;77.59;102311.28;5054610;28;20417;-83
2022/07/09 09:29:17;;;;;;;0.28;0.25;;;;;;;19.34;77.35;102309.31;5043072;28;20051;-83
2022/07/09 09:31:44;;;;;;;0.30;0.30;;;;;;;19.43;77.09;102311.06;5051586;28;20035;-83
2022/07/09 09:34:15;;;;;;;0.50;0.28;;;;;;;19.54;76.47;102301.06;5064046;28;20112;-83
2022/07/09 09:36:44;;;;;;;0.43;0.20;;;;;;;19.72;76.28;102301.00;5061008;28;20047;-83
2022/07/09 09:39:24;;;;;;;0.30;0.30;;;;;;;19.71;75.87;102297.50;5050530;28;20033;-83
2022/07/09 09:41:51;;;;;;;0.20;0.20;;;;;;;19.78;76.29;102305.72;5070706;28;20070;-83
2022/07/09 09:44:20;;;;;;;0.47;0.30;;;;;;;19.91;75.97;102304.44;5038692;28;20047;-78
2022/07/09 09:46:46;;;;;;;1.10;0.28;;;;;;;19.91;75.49;102299.91;5037337;28;20033;-79
2022/07/09 09:49:15;;;;;;;1.98;0.30;;;;;;;19.90;75.32;102298.25;5051595;28;20064;-83
2022/07/09 09:52:00;;;;;;;0.88;0.30;;;;;;;19.93;75.24;102297.91;5027538;28;20395;-83
2022/07/09 09:54:25;;;;;;;1.33;0.40;;;;;;;20.04;75.36;102290.59;5061515;28;20091;-83
2022/07/09 09:56:53;;;;;;;0.35;0.32;;;;;;;20.16;75.08;102288.47;5048747;28;20049;-83
2022/07/09 09:59:20;;;;;;;2.10;0.28;;;;;;;20.27;74.46;102284.63;5030185;28;20540;-83
2022/07/09 10:01:46;;;;;;;1.85;0.43;;;;;;;20.42;74.04;102288.34;5046807;28;20036;-83
2022/07/09 10:04:13;;;;;;;0.82;0.20;;;;;;;20.53;73.49;102289.06;5031750;28;20103;-83
2022/07/09 10:06:40;;;;;;;0.63;0.22;;;;;;;20.58;73.16;102292.06;5048689;28;20033;-83
2022/07/09 10:09:07;;;;;;;0.50;0.30;;;;;;;20.49;72.75;102293.91;5067502;28;20108;-83
2022/07/09 10:11:48;;;;;;;0.32;0.20;;;;;;;20.38;72.67;102280.78;5064945;28;20037;-83
2022/07/09 10:14:26;;;;;;;0.57;0.20;;;;;;;20.33;72.48;102286.66;5040287;28;20037;-83
2022/07/09 10:16:52;;;;;;;0.40;0.30;;;;;;;20.28;73.03;102289.00;5066367;28;20040;-83
2022/07/09 10:19:30;;;;;;;1.67;0.20;;;;;;;20.24;73.09;102288.50;5044353;28;20124;-83
2022/07/09 10:21:57;;;;;;;0.17;0.10;;;;;;;20.31;73.05;102296.72;5050022;28;20131;-83
2022/07/09 10:24:30;;;;;;;0.38;0.20;;;;;;;20.37;72.75;102290.69;5061745;28;20037;-83
2022/07/09 10:27:07;;;;;;;0.40;0.17;;;;;;;20.43;72.68;102290.03;5038018;28;20049;-83
2022/07/09 10:29:35;;;;;;;1.75;0.30;;;;;;;20.47;72.99;102295.06;5047079;28;20478;-83
2022/07/09 10:32:01;;;;;;;0.10;0.10;;;;;;;20.43;73.48;102284.66;5042111;28;20059;-83
2022/07/09 10:34:55;;;;;;;0.22;0.20;;;;;;;20.42;72.85;102284.81;5065346;28;20041;-83
2022/07/09 10:37:30;;;;;;;0.55;0.30;;;;;;;20.35;73.37;102284.66;5067803;28;20033;-83
2022/07/09 10:39:56;;;;;;;0.77;0.30;;;;;;;20.21;74.03;102288.78;5049138;28;20036;-83
2022/07/09 10:42:23;;;;;;;1.05;0.40;;;;;;;20.11;74.21;102288.97;5048094;28;20458;-83
2022/07/09 10:44:51;;;;;;;1.17;0.30;;;;;;;19.99;74.67;102291.06;5048506;28;20033;-83
2022/07/09 10:47:17;;;;;;;0.68;0.30;;;;;;;19.88;75.24;102294.88;5049719;28;20052;-83
2022/07/09 10:49:43;;;;;;;0.65;0.30;;;;;;;19.80;75.54;102292.13;5047440;28;20052;-83
2022/07/09 10:52:09;;;;;;;0.85;0.30;;;;;;;19.83;75.30;102286.44;5051550;28;20393;-83
2022/07/09 10:54:46;;;;;;;1.23;0.40;;;;;;;19.76;75.08;102290.78;5050249;28;20029;-82
2022/07/09 10:57:13;;;;;;;0.30;0.30;;;;;;;19.73;75.66;102285.75;5051926;28;20194;-83
2022/07/09 10:59:44;;;;;;;0.52;0.45;;;;;;;19.77;76.16;102287.09;5063681;28;20029;-83
2022/07/09 11:02:23;;;;;;;0.77;0.50;;;;;;;19.78;76.03;102294.97;5051491;28;20026;-83
2022/07/09 11:04:52;;;;;;;2.67;0.32;;;;;;;19.80;76.32;102292.13;5063130;28;20091;-82
2022/07/09 11:07:25;;;;;;;0.38;0.30;;;;;;;19.80;76.52;102294.81;5032084;28;20036;-83
2022/07/09 11:09:52;;;;;;;0.40;0.40;;;;;;;19.87;76.60;102286.97;5018175;28;20051;-83
2022/07/09 11:12:20;;;;;;;0.73;0.40;;;;;;;19.90;76.59;102284.81;5062977;28;20033;-83
2022/07/09 11:14:49;;;;;;;3.00;0.40;;;;;;;19.94;76.89;102285.34;5051460;28;20021;-82
2022/07/09 11:17:20;;;;;;;0.73;0.40;;;;;;;19.90;76.74;102281.28;5034284;28;20025;-82
2022/07/09 11:19:47;;;;;;;0.98;0.47;;;;;;;19.86;76.94;102291.50;5047044;28;20123;-83
2022/07/09 11:22:15;;;;;;;0.65;0.40;;;;;;;19.82;76.90;102288.31;5033205;28;20036;-83